Flight Track Log - Related Links

Times and Time Zones

All times are in EDT time to prevent confusion due to time zone crossing. See the G-CIVZ flight status page for this flight to view local times or setup timezone preferences in your user account.

Time Position Orientation Groundspeed Altitude Reporting Facility
EDT Latitude Longitude Course Direction KTS MPH feet Rate Location/Type
Mon 06:21:00 PM 6.7061 3.3136 357° North  Level Estimated
Mon 06:22:00 PM 6.8348 3.3061 357° North  Level Estimated
Mon 06:23:00 PM 6.9636 3.2985 357° North  Level Estimated
Mon 06:24:00 PM 7.0923 3.2910 357° North  Level Estimated
Mon 06:25:00 PM 7.2211 3.2834 357° North  Level Estimated
Mon 06:26:00 PM 7.3498 3.2758 357° North  Level Estimated
Mon 06:27:00 PM 7.4785 3.2683 357° North  Level Estimated
Mon 06:28:00 PM 7.6073 3.2607 357° North  Level Estimated
Mon 06:29:00 PM 7.7360 3.2531 357° North  Level Estimated
Mon 06:30:00 PM 7.8648 3.2455 357° North  Level Estimated
Mon 06:31:00 PM 7.9935 3.2379 357° North  Level Estimated
Mon 06:32:00 PM 8.1222 3.2304 357° North  Level Estimated
Mon 06:33:00 PM 8.2510 3.2227 357° North  Level Estimated
Mon 06:34:00 PM 8.3797 3.2152 357° North  Level Estimated
Mon 06:35:00 PM 8.5085 3.2075 357° North  Level Estimated
Mon 06:36:00 PM 8.6372 3.1999 357° North  Level Estimated
Mon 06:37:00 PM 8.7660 3.1923 357° North  Level Estimated
Mon 06:38:00 PM 8.8947 3.1847 357° North  Level Estimated
Mon 06:39:00 PM 9.0234 3.1771 357° North  Level Estimated
Mon 06:40:00 PM 9.1522 3.1694 357° North  Level Estimated
Mon 06:41:00 PM 9.2809 3.1618 357° North  Level Estimated
Mon 06:42:00 PM 9.4096 3.1542 357° North  Level Estimated
Mon 06:43:00 PM 9.5384 3.1465 357° North  Level Estimated
Mon 06:44:00 PM 9.6671 3.1388 357° North  Level Estimated
Mon 06:45:00 PM 9.7959 3.1312 357° North  Level Estimated
Mon 06:46:00 PM 9.9246 3.1235 357° North  Level Estimated
Mon 06:47:00 PM 10.0534 3.1158 357° North  Level Estimated
Mon 06:48:00 PM 10.1821 3.1082 357° North  Level Estimated
Mon 06:49:00 PM 10.3108 3.1005 357° North  Level Estimated
Mon 06:50:00 PM 10.4396 3.0928 357° North  Level Estimated
Mon 06:51:00 PM 10.5683 3.0851 357° North  Level Estimated
Mon 06:52:00 PM 10.6971 3.0774 357° North  Level Estimated
Mon 06:53:00 PM 10.8258 3.0697 357° North  Level Estimated
Mon 06:54:00 PM 10.9545 3.0619 357° North  Level Estimated
Mon 06:55:00 PM 11.0833 3.0542 357° North  Level Estimated
Mon 06:56:00 PM 11.2120 3.0465 357° North  Level Estimated
Mon 06:57:00 PM 11.3407 3.0387 357° North  Level Estimated
Mon 06:58:00 PM 11.4695 3.0310 357° North  Level Estimated
Mon 06:59:00 PM 11.5982 3.0232 357° North  Level Estimated
Mon 07:00:00 PM 11.7270 3.0155 357° North  Level Estimated
Mon 07:01:00 PM 11.8557 3.0077 357° North  Level Estimated
Mon 07:02:00 PM 11.9844 2.9999 357° North  Level Estimated
Mon 07:03:00 PM 12.1132 2.9922 357° North  Level Estimated
Mon 07:04:00 PM 12.2419 2.9844 357° North  Level Estimated
Mon 07:05:00 PM 12.3706 2.9766 357° North  Level Estimated
Mon 07:06:00 PM 12.4993 2.9688 357° North  Level Estimated
Mon 07:07:00 PM 12.6281 2.9610 357° North  Level Estimated
Mon 07:08:00 PM 12.7568 2.9531 357° North  Level Estimated
Mon 07:09:00 PM 12.8855 2.9453 357° North  Level Estimated
Mon 07:10:00 PM 13.0083 2.9378 357° North  Level Estimated
Mon 07:11:00 PM 13.1310 2.9304 357° North  Level Estimated
Mon 07:12:00 PM 13.2538 2.9229 357° North  Level Estimated
Mon 07:13:00 PM 13.3765 2.9154 357° North  Level Estimated
Mon 07:14:00 PM 13.4993 2.9079 357° North  Level Estimated
Mon 07:15:00 PM 13.6220 2.9004 357° North  Level Estimated
Mon 07:16:00 PM 13.7448 2.8928 357° North  Level Estimated
Mon 07:17:00 PM 13.8675 2.8853 357° North  Level Estimated
Mon 07:18:00 PM 13.9903 2.8778 357° North  Level Estimated
Mon 07:19:00 PM 14.1130 2.8702 357° North  Level Estimated
Mon 07:20:00 PM 14.2358 2.8627 357° North  Level Estimated
Mon 07:21:00 PM 14.3585 2.8551 357° North  Level Estimated
Mon 07:22:00 PM 14.4813 2.8476 357° North  Level Estimated
Mon 07:23:00 PM 14.6040 2.8400 357° North  Level Estimated
Mon 07:24:00 PM 14.7268 2.8324 357° North  Level Estimated
Mon 07:25:00 PM 14.8495 2.8248 357° North  Level Estimated
Mon 07:26:00 PM 14.9723 2.8172 357° North  Level Estimated
Mon 07:27:00 PM 15.0950 2.8096 357° North  Level Estimated
Mon 07:28:00 PM 15.2178 2.8020 357° North  Level Estimated
Mon 07:29:00 PM 15.3405 2.7944 357° North  Level Estimated
Mon 07:30:00 PM 15.4633 2.7867 357° North  Level Estimated
Mon 07:31:00 PM 15.5860 2.7791 357° North  Level Estimated
Mon 07:32:00 PM 15.7088 2.7714 357° North  Level Estimated
Mon 07:33:00 PM 15.8315 2.7638 357° North  Level Estimated
Mon 07:34:00 PM 15.9543 2.7561 357° North  Level Estimated
Mon 07:35:00 PM 16.0770 2.7484 357° North  Level Estimated
Mon 07:36:00 PM 16.1998 2.7407 357° North  Level Estimated
Mon 07:37:00 PM 16.3225 2.7330 357° North  Level Estimated
Mon 07:38:00 PM 16.4453 2.7253 357° North  Level Estimated
Mon 07:39:00 PM 16.5680 2.7176 357° North  Level Estimated
Mon 07:40:00 PM 16.6908 2.7099 357° North  Level Estimated
Mon 07:41:00 PM 16.8135 2.7021 357° North  Level Estimated
Mon 07:42:00 PM 16.9363 2.6944 357° North  Level Estimated
Mon 07:43:00 PM 17.0590 2.6866 357° North  Level Estimated
Mon 07:44:00 PM 17.1818 2.6789 357° North  Level Estimated
Mon 07:45:00 PM 17.3045 2.6711 357° North  Level Estimated
Mon 07:46:00 PM 17.4273 2.6633 357° North  Level Estimated
Mon 07:47:00 PM 17.5500 2.6555 357° North  Level Estimated
Mon 07:48:00 PM 17.6727 2.6477 357° North  Level Estimated
Mon 07:49:00 PM 17.7955 2.6399 357° North  Level Estimated
Mon 07:50:00 PM 17.9182 2.6320 357° North  Level Estimated
Mon 07:51:00 PM 18.0410 2.6242 357° North  Level Estimated
Mon 07:52:00 PM 18.1637 2.6163 357° North  Level Estimated
Mon 07:53:00 PM 18.2864 2.6085 357° North  Level Estimated
Mon 07:54:00 PM 18.4092 2.6006 357° North  Level Estimated
Mon 07:55:00 PM 18.5319 2.5927 357° North  Level Estimated
Mon 07:56:00 PM 18.6547 2.5848 357° North  Level Estimated
Mon 07:57:00 PM 18.7774 2.5769 357° North  Level Estimated
Mon 07:58:00 PM 18.9001 2.5690 357° North  Level Estimated
Mon 07:59:00 PM 19.0229 2.5610 357° North  Level Estimated
Mon 08:00:00 PM 19.1456 2.5531 356° North  Level Estimated
Mon 08:01:00 PM 19.2684 2.5451 356° North  Level Estimated
Mon 08:02:00 PM 19.3911 2.5371 356° North  Level Estimated
Mon 08:03:00 PM 19.5138 2.5292 356° North  Level Estimated
Mon 08:04:00 PM 19.6366 2.5212 356° North  Level Estimated
Mon 08:05:00 PM 19.7593 2.5132 356° North  Level Estimated
Mon 08:06:00 PM 19.8821 2.5052 356° North  Level Estimated
Mon 08:07:00 PM 20.0048 2.4971 356° North  Level Estimated
Mon 08:08:00 PM 20.1275 2.4891 356° North  Level Estimated
Mon 08:09:00 PM 20.2503 2.4810 356° North  Level Estimated
Mon 08:10:00 PM 20.3730 2.4729 356° North  Level Estimated
Mon 08:11:00 PM 20.4958 2.4649 356° North  Level Estimated
Mon 08:12:00 PM 20.6185 2.4568 356° North  Level Estimated
Mon 08:13:00 PM 20.7412 2.4487 356° North  Level Estimated
Mon 08:14:00 PM 20.8640 2.4405 356° North  Level Estimated
Mon 08:15:00 PM 20.9867 2.4324 356° North  Level Estimated
Mon 08:16:00 PM 21.1094 2.4243 356° North  Level Estimated
Mon 08:17:00 PM 21.2322 2.4161 356° North  Level Estimated
Mon 08:18:00 PM 21.3549 2.4079 356° North  Level Estimated
Mon 08:19:00 PM 21.4776 2.3997 356° North  Level Estimated
Mon 08:20:00 PM 21.6003 2.3915 356° North  Level Estimated
Mon 08:21:00 PM 21.7231 2.3833 356° North  Level Estimated
Mon 08:22:00 PM 21.8458 2.3751 356° North  Level Estimated
Mon 08:23:00 PM 21.9685 2.3668 356° North  Level Estimated
Mon 08:24:00 PM 22.0913 2.3586 356° North  Level Estimated
Mon 08:25:00 PM 22.2140 2.3503 356° North  Level Estimated
Mon 08:26:00 PM 22.3367 2.3420 356° North  Level Estimated
Mon 08:27:00 PM 22.4595 2.3337 356° North  Level Estimated
Mon 08:28:00 PM 22.5822 2.3254 356° North  Level Estimated
Mon 08:29:00 PM 22.7049 2.3171 356° North  Level Estimated
Mon 08:30:00 PM 22.8277 2.3087 356° North  Level Estimated
Mon 08:31:00 PM 22.9504 2.3004 356° North  Level Estimated
Mon 08:32:00 PM 23.0731 2.2920 356° North  Level Estimated
Mon 08:33:00 PM 23.1958 2.2836 356° North  Level Estimated
Mon 08:34:00 PM 23.3186 2.2752 356° North  Level Estimated
Mon 08:35:00 PM 23.4413 2.2668 356° North  Level Estimated
Mon 08:36:00 PM 23.5640 2.2583 356° North  Level Estimated
Mon 08:37:00 PM 23.6868 2.2499 356° North  Level Estimated
Mon 08:38:00 PM 23.8095 2.2414 356° North  Level Estimated
Mon 08:39:00 PM 23.9322 2.2329 356° North  Level Estimated
Mon 08:40:00 PM 24.0549 2.2244 356° North  Level Estimated
Mon 08:41:00 PM 24.1776 2.2159 356° North  Level Estimated
Mon 08:42:00 PM 24.3004 2.2073 356° North  Level Estimated
Mon 08:43:00 PM 24.4231 2.1988 356° North  Level Estimated
Mon 08:44:00 PM 24.5458 2.1902 356° North  Level Estimated
Mon 08:45:00 PM 24.6685 2.1816 356° North  Level Estimated
Mon 08:46:00 PM 24.7912 2.1730 356° North  Level Estimated
Mon 08:47:00 PM 24.9140 2.1644 356° North  Level Estimated
Mon 08:48:00 PM 25.0367 2.1558 356° North  Level Estimated
Mon 08:49:00 PM 25.1594 2.1471 356° North  Level Estimated
Mon 08:50:00 PM 25.2821 2.1384 356° North  Level Estimated
Mon 08:51:00 PM 25.4048 2.1298 356° North  Level Estimated
Mon 08:52:00 PM 25.5276 2.1210 356° North  Level Estimated
Mon 08:53:00 PM 25.6503 2.1123 356° North  Level Estimated
Mon 08:54:00 PM 25.7730 2.1036 356° North  Level Estimated
Mon 08:55:00 PM 25.8957 2.0948 356° North  Level Estimated
Mon 08:56:00 PM 26.0184 2.0861 356° North  Level Estimated
Mon 08:57:00 PM 26.1412 2.0773 356° North  Level Estimated
Mon 08:58:00 PM 26.2639 2.0684 356° North  Level Estimated
Mon 08:59:00 PM 26.3866 2.0596 356° North  Level Estimated
Mon 09:00:00 PM 26.5093 2.0508 356° North  Level Estimated
Mon 09:01:00 PM 26.6320 2.0419 356° North  Level Estimated
Mon 09:02:00 PM 26.7547 2.0330 356° North  Level Estimated
Mon 09:03:00 PM 26.8774 2.0241 356° North  Level Estimated
Mon 09:04:00 PM 27.0001 2.0152 356° North  Level Estimated
Mon 09:05:00 PM 27.1228 2.0062 356° North  Level Estimated
Mon 09:06:00 PM 27.2456 1.9972 356° North  Level Estimated
Mon 09:07:00 PM 27.3683 1.9882 356° North  Level Estimated
Mon 09:08:00 PM 27.4910 1.9792 356° North  Level Estimated
Mon 09:09:00 PM 27.6154 1.9701 356° North  Level Estimated
Mon 09:10:00 PM 27.7398 1.9609 356° North  Level Estimated
Mon 09:11:00 PM 27.8642 1.9517 356° North  Level Estimated
Mon 09:12:00 PM 27.9886 1.9425 356° North  Level Estimated
Mon 09:13:00 PM 28.1130 1.9332 356° North  Level Estimated
Mon 09:14:00 PM 28.2374 1.9240 356° North  Level Estimated
Mon 09:15:00 PM 28.3618 1.9147 356° North  Level Estimated
Mon 09:16:00 PM 28.4862 1.9054 356° North  Level Estimated
Mon 09:17:00 PM 28.6106 1.8961 356° North  Level Estimated
Mon 09:18:00 PM 28.7350 1.8867 356° North  Level Estimated
Mon 09:19:00 PM 28.8594 1.8773 356° North  Level Estimated
Mon 09:20:00 PM 28.9838 1.8680 356° North  Level Estimated
Mon 09:21:00 PM 29.1082 1.8585 356° North  Level Estimated
Mon 09:22:00 PM 29.2326 1.8491 356° North  Level Estimated
Mon 09:23:00 PM 29.3570 1.8397 356° North  Level Estimated
Mon 09:24:00 PM 29.4814 1.8302 356° North  Level Estimated
Mon 09:25:00 PM 29.6058 1.8207 356° North  Level Estimated
Mon 09:26:00 PM 29.7302 1.8111 356° North  Level Estimated
Mon 09:27:00 PM 29.8546 1.8016 356° North  Level Estimated
Mon 09:28:00 PM 29.9790 1.7920 356° North  Level Estimated
Mon 09:29:00 PM 30.1034 1.7824 356° North  Level Estimated
Mon 09:30:00 PM 30.2278 1.7728 356° North  Level Estimated
Mon 09:31:00 PM 30.3522 1.7631 356° North  Level Estimated
Mon 09:32:00 PM 30.4766 1.7534 356° North  Level Estimated
Mon 09:33:00 PM 30.6010 1.7437 356° North  Level Estimated
Mon 09:34:00 PM 30.7254 1.7340 356° North  Level Estimated
Mon 09:35:00 PM 30.8498 1.7243 356° North  Level Estimated
Mon 09:36:00 PM 30.9741 1.7145 356° North  Level Estimated
Mon 09:37:00 PM 31.0985 1.7047 356° North  Level Estimated
Mon 09:38:00 PM 31.2229 1.6949 356° North  Level Estimated
Mon 09:39:00 PM 31.3473 1.6850 356° North  Level Estimated
Mon 09:40:00 PM 31.4717 1.6751 356° North  Level Estimated
Mon 09:41:00 PM 31.5961 1.6652 356° North  Level Estimated
Mon 09:42:00 PM 31.7205 1.6553 356° North  Level Estimated
Mon 09:43:00 PM 31.8449 1.6453 356° North  Level Estimated
Mon 09:44:00 PM 31.9692 1.6354 356° North  Level Estimated
Mon 09:45:00 PM 32.0936 1.6253 356° North  Level Estimated
Mon 09:46:00 PM 32.2180 1.6153 356° North  Level Estimated
Mon 09:47:00 PM 32.3424 1.6052 356° North  Level Estimated
Mon 09:48:00 PM 32.4668 1.5951 356° North  Level Estimated
Mon 09:49:00 PM 32.5911 1.5850 356° North  Level Estimated
Mon 09:50:00 PM 32.7155 1.5749 356° North  Level Estimated
Mon 09:51:00 PM 32.8399 1.5647 356° North  Level Estimated
Mon 09:52:00 PM 32.9643 1.5545 356° North  Level Estimated
Mon 09:53:00 PM 33.0887 1.5443 356° North  Level Estimated
Mon 09:54:00 PM 33.2131 1.5340 356° North  Level Estimated
Mon 09:55:00 PM 33.3374 1.5237 356° North  Level Estimated
Mon 09:56:00 PM 33.4618 1.5134 356° North  Level Estimated
Mon 09:57:00 PM 33.5862 1.5030 356° North  Level Estimated
Mon 09:58:00 PM 33.7105 1.4926 356° North  Level Estimated
Mon 09:59:00 PM 33.8349 1.4822 356° North  Level Estimated
Mon 10:00:00 PM 33.9593 1.4718 356° North  Level Estimated
Mon 10:01:00 PM 34.0836 1.4613 356° North  Level Estimated
Mon 10:02:00 PM 34.2080 1.4508 356° North  Level Estimated
Mon 10:03:00 PM 34.3324 1.4403 356° North  Level Estimated
Mon 10:04:00 PM 34.4568 1.4297 356° North  Level Estimated
Mon 10:05:00 PM 34.5811 1.4191 356° North  Level Estimated
Mon 10:06:00 PM 34.7055 1.4085 356° North  Level Estimated
Mon 10:07:00 PM 34.8299 1.3978 356° North  Level Estimated
Mon 10:08:00 PM 34.9542 1.3871 356° North  Level Estimated
Mon 10:09:00 PM 35.0786 1.3764 356° North  Level Estimated
Mon 10:10:00 PM 35.2029 1.3656 356° North  Level Estimated
Mon 10:11:00 PM 35.3273 1.3548 356° North  Level Estimated
Mon 10:12:00 PM 35.4517 1.3440 356° North  Level Estimated
Mon 10:13:00 PM 35.5760 1.3331 356° North  Level Estimated
Mon 10:14:00 PM 35.7004 1.3223 356° North  Level Estimated
Mon 10:15:00 PM 35.8247 1.3113 356° North  Level Estimated
Mon 10:16:00 PM 35.9491 1.3004 356° North  Level Estimated
Mon 10:17:00 PM 36.0734 1.2894 356° North  Level Estimated
Mon 10:17:27 PM 38.2780 6.1820 356° North 519 597 36,000  Level FlightAware ADS-B
Mon 10:18:00 PM 36.1978 1.2783 356° North  Level Estimated
Mon 10:18:07 PM 38.3590 6.1720 354° North 519 597 36,000  Level FlightAware ADS-B
Mon 10:20:00 PM 38.5830 6.0822 343° North  Level Estimated
Mon 10:20:42 PM 38.7630 6.1080 343° North 519 597 36,000  Level FlightAware ADS-B
Mon 10:22:02 PM 38.9560 6.0700 351° North 520 598 36,000 480 Level FlightAware ADS-B
Mon 10:23:12 PM 39.1250 6.0370 351° North 522 601 37,200 333 Climbing FlightAware ADS-B
Mon 10:25:00 PM 39.3383 5.9472 342° North  Level Estimated
Mon 10:26:00 PM 39.4568 5.8970 342° North  Level Estimated
Mon 10:27:00 PM 39.5753 5.8467 342° North  Level Estimated
Mon 10:28:00 PM 39.6938 5.7962 342° North  Level Estimated
Mon 10:28:02 PM 39.8410 5.8880 342° North 540 621 38,000  Level FlightAware ADS-B
Mon 10:30:00 PM 40.0733 5.7856 341° North  Level Estimated
Mon 10:30:27 PM 40.2020 5.8120 341° North 539 620 38,000  Level FlightAware ADS-B
Mon 10:31:12 PM 40.3200 5.7860 350° North 541 623 38,000  Level FlightAware ADS-B
Mon 10:31:52 PM 40.4210 5.7650 351° North 542 624 38,000  Level FlightAware ADS-B
Mon 10:32:32 PM 40.5150 5.7450 351° North 543 625 38,000  Level FlightAware ADS-B
Mon 10:33:12 PM 40.6110 5.7230 350° North 543 625 38,000  Level FlightAware ADS-B
Mon 10:33:57 PM 40.7270 5.6990 351° North 542 624 38,000  Level FlightAware ADS-B
Mon 10:34:42 PM 40.8420 5.6750 351° North 541 623 38,000  Level FlightAware ADS-B
Mon 10:35:17 PM 40.9180 5.6570 350° North 540 621 38,000  Level FlightAware ADS-B
Mon 10:36:07 PM 41.0490 5.6300 351° North 539 620 38,000  Level FlightAware ADS-B
Mon 10:36:47 PM 41.1480 5.6080 351° North 539 620 38,000  Level FlightAware ADS-B
Mon 10:37:27 PM 41.2460 5.5870 351° North 538 619 38,000  Level FlightAware ADS-B
Mon 10:38:12 PM 41.3570 5.5620 350° North 539 620 38,000  Level FlightAware ADS-B
Mon 10:38:52 PM 41.4560 5.5400 351° North 540 621 38,000  Level FlightAware ADS-B
Mon 10:39:37 PM 41.5660 5.5160 351° North 541 623 38,000  Level FlightAware ADS-B
Mon 10:40:17 PM 41.6660 5.4940 351° North 542 624 38,000  Level FlightAware ADS-B
Mon 10:40:57 PM 41.7640 5.4720 350° North 543 625 38,000  Level FlightAware ADS-B
Mon 10:41:42 PM 41.8790 5.4460 350° North 542 624 38,000  Level FlightAware ADS-B
Mon 10:42:22 PM 41.9720 5.4260 351° North 541 623 38,000  Level FlightAware ADS-B
Mon 10:43:02 PM 42.0670 5.4040 350° North 539 620 38,000  Level FlightAware ADS-B
Mon 10:43:37 PM 42.1580 5.3840 351° North 538 619 38,000  Level FlightAware ADS-B
Mon 10:44:27 PM 42.2760 5.3570 350° North 537 618 38,000  Level FlightAware ADS-B
Mon 10:45:12 PM 42.3920 5.3310 351° North 537 618 38,000  Level FlightAware ADS-B
Mon 10:45:52 PM 42.4900 5.3080 350° North 537 618 38,000  Level FlightAware ADS-B
Mon 10:46:32 PM 42.5880 5.2860 351° North 537 618 38,000  Level FlightAware ADS-B
Mon 10:47:17 PM 42.7020 5.2600 350° North 535 616 38,000  Level FlightAware ADS-B
Mon 10:47:57 PM 42.7990 5.2370 350° North 534 615 38,000  Level FlightAware ADS-B
Mon 10:48:42 PM 42.9050 5.2130 351° North 533 613 38,000  Level FlightAware ADS-B
Mon 10:49:22 PM 43.0030 5.1900 350° North 531 611 38,000  Level FlightAware ADS-B
Mon 10:50:02 PM 43.0990 5.1680 351° North 530 610 38,000  Level FlightAware ADS-B
Mon 10:50:47 PM 43.2110 5.1420 350° North 530 610 38,000  Level FlightAware ADS-B
Mon 10:51:27 PM 43.3080 5.1190 350° North 530 610 38,000  Level FlightAware ADS-B
Mon 10:52:12 PM 43.4140 5.0940 350° North 531 611 38,000  Level FlightAware ADS-B
Mon 10:52:52 PM 43.5110 5.0710 350° North 531 611 38,000  Level FlightAware ADS-B
Mon 10:53:32 PM 43.6080 5.0480 350° North 531 611 38,000  Level FlightAware ADS-B
Mon 10:54:17 PM 43.7200 5.0220 350° North 533 613 38,000  Level FlightAware ADS-B
Mon 10:54:57 PM 43.8180 4.9980 350° North 532 612 38,000  Level FlightAware ADS-B
Mon 10:55:42 PM 43.9250 4.9730 350° North 531 611 38,000  Level FlightAware ADS-B
Mon 10:56:22 PM 44.0200 4.9500 350° North 530 610 38,000  Level FlightAware ADS-B
Mon 10:57:02 PM 44.1180 4.9270 350° North 529 609 38,000  Level FlightAware ADS-B
Mon 10:57:47 PM 44.2290 4.9000 350° North 526 605 38,000  Level FlightAware ADS-B
Mon 10:58:32 PM 44.3340 4.8740 350° North 523 602 38,000  Level FlightAware ADS-B
Mon 10:59:12 PM 44.4300 4.8510 350° North 520 598 38,000  Level FlightAware ADS-B
Mon 10:59:52 PM 44.5220 4.8290 350° North 517 595 38,000  Level FlightAware ADS-B
Mon 11:00:37 PM 44.6310 4.8020 350° North 514 592 38,000  Level FlightAware ADS-B
Mon 11:01:17 PM 44.7260 4.7780 350° North 513 590 38,000  Level FlightAware ADS-B
Mon 11:02:02 PM 44.8280 4.7530 350° North 511 588 38,000  Level FlightAware ADS-B
Mon 11:02:42 PM 44.9200 4.7280 349° North 509 586 38,000  Level FlightAware ADS-B
Mon 11:03:22 PM 45.0110 4.6920 344° North 510 587 38,000  Level FlightAware ADS-B
Mon 11:04:07 PM 45.1150 4.6460 343° North 510 587 38,000  Level FlightAware ADS-B
Mon 11:04:47 PM 45.2050 4.6030 341° North 512 589 38,000  Level FlightAware ADS-B
Mon 11:05:32 PM 45.3040 4.5580 342° North 515 593 38,000  Level FlightAware ADS-B
Mon 11:06:12 PM 45.3950 4.5150 342° North 517 595 38,000  Level FlightAware ADS-B
Mon 11:06:57 PM 45.5000 4.4650 342° North 518 596 38,000  Level FlightAware ADS-B
Mon 11:07:37 PM 45.5920 4.4210 341° North 519 597 38,000  Level FlightAware ADS-B
Mon 11:08:17 PM 45.6790 4.3800 342° North 518 596 38,000  Level FlightAware ADS-B
Mon 11:09:02 PM 45.7830 4.3300 341° North 519 597 38,000  Level FlightAware ADS-B
Mon 11:09:42 PM 45.8750 4.2870 342° North 518 596 38,000  Level FlightAware ADS-B
Mon 11:10:27 PM 45.9740 4.2390 341° North 518 596 38,000  Level FlightAware ADS-B
Mon 11:11:07 PM 46.0650 4.1950 341° North 517 595 38,000  Level FlightAware ADS-B
Mon 11:11:47 PM 46.1570 4.1510 342° North 515 593 38,000  Level FlightAware ADS-B
Mon 11:12:32 PM 46.2610 4.1010 342° North 512 589 38,000  Level FlightAware ADS-B
Mon 11:13:12 PM 46.3500 4.0570 341° North 510 587 38,000  Level FlightAware ADS-B
Mon 11:13:52 PM 46.4390 4.0140 342° North 508 585 38,000  Level FlightAware ADS-B
Mon 11:14:37 PM 46.5360 3.9660 341° North 506 582 38,000  Level FlightAware ADS-B
Mon 11:15:17 PM 46.6260 3.9230 342° North 505 581 38,000  Level FlightAware ADS-B
Mon 11:16:02 PM 46.7290 3.8720 341° North 506 582 38,000  Level FlightAware ADS-B
Mon 11:16:42 PM 46.8160 3.8290 341° North 506 582 38,000  Level FlightAware ADS-B
Mon 11:17:22 PM 46.9060 3.7850 342° North 506 582 38,000  Level FlightAware ADS-B
Mon 11:18:07 PM 47.0030 3.7370 341° North 506 582 38,000  Level FlightAware ADS-B
Mon 11:18:47 PM 47.0910 3.6930 341° North 506 582 38,000  Level FlightAware ADS-B
Mon 11:19:22 PM 47.1670 3.6550 341° North 508 585 38,000  Level FlightAware ADS-B
Mon 11:20:12 PM 47.2770 3.5990 341° North 508 585 38,000  Level FlightAware ADS-B
Mon 11:20:52 PM 47.3710 3.5520 341° North 507 583 38,000  Level FlightAware ADS-B
Mon 11:21:37 PM 47.4680 3.5030 341° North 505 581 38,000  Level FlightAware ADS-B
Mon 11:22:17 PM 47.5570 3.4580 341° North 503 579 38,000  Level FlightAware ADS-B
Mon 11:23:02 PM 47.6530 3.4090 341° North 501 577 38,000  Level FlightAware ADS-B
Mon 11:23:42 PM 47.7380 3.3630 340° North 497 572 38,000  Level FlightAware ADS-B
Mon 11:24:27 PM 47.8330 3.3050 338° Northwest 495 570 38,000  Level FlightAware ADS-B
Mon 11:25:07 PM 47.9230 3.2520 338° Northwest 492 566 38,000  Level FlightAware ADS-B
Mon 11:25:47 PM 48.0070 3.2020 338° Northwest 491 565 38,000  Level FlightAware ADS-B
Mon 11:25:58 PM 48.0355 3.1847 338° Northwest 491 565 38,000  Level FlightAware ADS-B
Mon 11:26:29 PM 48.0998 3.1472 339° North 490 564 38,000  Level FlightAware ADS-B
Mon 11:26:59 PM 48.1630 3.1097 338° Northwest 490 564 38,000  Level FlightAware ADS-B
Mon 11:27:31 PM 48.2322 3.0685 338° Northwest 490 564 38,000  Level FlightAware ADS-B
Mon 11:28:37 PM 48.3650 2.9890 338° Northwest 490 564 38,000  Level FlightAware ADS-B
Mon 11:28:52 PM 48.4020 2.9664 338° Northwest 490 564 38,000  Level FlightAware ADS-B
Mon 11:29:23 PM 48.4665 2.9284 339° North 489 563 38,000  Level FlightAware ADS-B
Mon 11:29:53 PM 48.5297 2.8904 338° Northwest 488 562 38,000  Level FlightAware ADS-B
Mon 11:30:25 PM 48.5959 2.8497 338° Northwest 488 562 38,000  Level FlightAware ADS-B
Mon 11:30:56 PM 48.6608 2.8104 338° Northwest 487 560 38,000  Level FlightAware ADS-B
Mon 11:31:26 PM 48.7249 2.7709 338° Northwest 486 559 38,000  Level FlightAware ADS-B
Mon 11:31:58 PM 48.7910 2.7302 338° Northwest 485 558 38,000  Level FlightAware ADS-B
Mon 11:32:33 PM 48.8635 2.6869 339° North 485 558 38,000  Level FlightAware ADS-B
Mon 11:33:04 PM 48.9277 2.6473 338° Northwest 483 556 38,000 -1,837 Level FlightAware ADS-B
Mon 11:33:22 PM 48.9637 2.6123 338° Northwest 1 1 36,500  Descending FlightAware UK
Mon 11:33:35 PM 48.9911 2.6079 338° Northwest 481 554 38,000  Climbing FlightAware ADS-B
Mon 11:33:53 PM 49.0274 2.5773 338° Northwest 1 1 36,500  Descending FlightAware UK
Mon 11:34:06 PM 49.0546 2.5684 338° Northwest 479 551 38,000  Climbing FlightAware ADS-B
Mon 11:34:22 PM 49.0894 2.5463 338° Northwest 1 1 36,500  Descending FlightAware UK
Mon 11:34:39 PM 49.1226 2.5233 338° Northwest 479 551 38,000  Climbing FlightAware ADS-B
Mon 11:34:58 PM 49.1613 2.4956 338° Northwest 1 1 36,500  Descending FlightAware UK
Mon 11:35:14 PM 49.1915 2.4697 338° Northwest 474 545 38,000  Climbing FlightAware ADS-B
Mon 11:35:29 PM 49.2191 2.4464 338° Northwest 1 1 36,500 -2,727 Descending FlightAware UK
Mon 11:35:47 PM 49.2536 2.4176 331° Northwest 1 1 36,500 3,750 Level FlightAware UK
Mon 11:35:53 PM 49.2649 2.4081 331° Northwest 472 543 38,000  Climbing FlightAware ADS-B
Mon 11:36:11 PM 49.2988 2.3775 331° Northwest 480 552 36,500  Descending FlightAware UK
Mon 11:36:23 PM 49.3226 2.3571 331° Northwest 473 544 38,000  Climbing FlightAware ADS-B
Mon 11:36:40 PM 49.3554 2.3280 331° Northwest 476 548 36,500  Descending FlightAware UK
Mon 11:36:54 PM 49.3802 2.3071 331° Northwest 473 544 38,000  Climbing FlightAware ADS-B
Mon 11:37:10 PM 49.4119 2.2783 331° Northwest 476 548 36,500  Descending FlightAware UK
Mon 11:37:27 PM 49.4431 2.2518 331° Northwest 474 545 38,000  Climbing FlightAware ADS-B
Mon 11:37:47 PM 49.4809 2.2171 331° Northwest 476 548 36,500  Descending FlightAware UK
Mon 11:37:57 PM 49.5011 2.1999 331° Northwest 475 547 38,000  Climbing FlightAware ADS-B
Mon 11:38:17 PM 49.5381 2.1668 331° Northwest 474 545 36,500 -2,368 Descending FlightAware UK
Mon 11:38:35 PM 49.5724 2.1364 330° Northwest 474 545 36,500  Level FlightAware UK
Mon 11:38:52 PM 49.6059 2.1064 330° Northwest 474 545 36,500 2,813 Level FlightAware UK
Mon 11:39:07 PM 49.6300 2.0860 330° Northwest 478 550 38,000  Climbing FlightAware ADS-B
Mon 11:39:22 PM 49.6635 2.0555 330° Northwest 474 545 36,500 -2,727 Descending FlightAware UK
Mon 11:39:40 PM 49.6981 2.0246 330° Northwest 476 548 36,500 4,091 Level FlightAware UK
Mon 11:39:44 PM 49.7048 2.0162 330° Northwest 477 549 38,000  Climbing FlightAware ADS-B
Mon 11:40:04 PM 49.7393 1.9732 330° Northwest 478 550 36,500  Descending FlightAware UK
Mon 11:40:15 PM 49.7577 1.9527 330° Northwest 477 549 38,000  Climbing FlightAware ADS-B
Mon 11:40:34 PM 49.7909 1.9096 330° Northwest 480 552 36,500 -2,432 Descending FlightAware UK
Mon 11:40:52 PM 49.8222 1.8708 321° Northwest 482 555 36,500  Level FlightAware UK
Mon 11:41:10 PM 49.8534 1.8326 322° Northwest 480 552 36,500 4,500 Level FlightAware UK
Mon 11:41:12 PM 49.8550 1.8340 322° Northwest 477 549 38,000  Climbing FlightAware ADS-B
Mon 11:41:28 PM 49.8851 1.7940 322° Northwest 482 555 36,500 -2,647 Descending FlightAware UK
Mon 11:41:46 PM 49.9165 1.7571 323° Northwest 484 557 36,500 3,750 Level FlightAware UK
Mon 11:41:52 PM 49.9240 1.7510 323° Northwest 477 549 38,000 -500 Climbing FlightAware ADS-B
Mon 11:42:10 PM 49.9590 1.7082 323° Northwest 484 557 36,300 -3,000 Descending FlightAware UK
Mon 11:42:28 PM 49.9912 1.6710 323° Northwest 480 552 36,200 2,889 Descending FlightAware UK
Mon 11:42:37 PM 50.0030 1.6590 323° Northwest 471 542 37,600 2,500 Climbing FlightAware ADS-B
Mon 11:42:52 PM 50.0311 1.6263 323° Northwest 469 540 37,200 -4,909 Descending FlightAware ADS-B
Mon 11:43:10 PM 50.0638 1.5868 323° Northwest 480 552 34,900 -5,000 Descending FlightAware UK
Mon 11:43:28 PM 50.0958 1.5495 323° Northwest 470 541 34,200 -2,167 Descending FlightAware UK
Mon 11:43:46 PM 50.1259 1.5139 323° Northwest 464 534 33,600 2,842 Descending FlightAware UK
Mon 11:43:47 PM 50.1259 1.5157 323° Northwest 462 532 35,100 -2,333 Climbing FlightAware ADS-B
Mon 11:44:04 PM 50.1555 1.4790 323° Northwest 458 527 32,900 -2,200 Descending FlightAware UK
Mon 11:44:17 PM 50.1777 1.4533 323° Northwest 458 527 34,000 -2,200 Climbing FlightAware ADS-B
Mon 11:44:34 PM 50.2055 1.4192 323° Northwest 448 516 31,800 -2,250 Descending FlightAware UK
Mon 11:44:49 PM 50.2311 1.3891 323° Northwest 454 522 32,800 -2,000 Climbing FlightAware ADS-B
Mon 11:45:04 PM 50.2553 1.3591 323° Northwest 440 506 30,800 -4,909 Descending FlightAware UK
Mon 11:45:22 PM 50.2850 1.3236 323° Northwest 444 511 30,100 2,526 Descending FlightAware UK
Mon 11:45:23 PM 50.2869 1.3218 323° Northwest 449 517 31,600 -2,000 Climbing FlightAware ADS-B
Mon 11:45:40 PM 50.3146 1.2880 323° Northwest 440 506 29,500 -1,935 Descending FlightAware UK
Mon 11:45:54 PM 50.3369 1.2629 323° Northwest 444 511 30,600 -2,000 Climbing FlightAware ADS-B
Mon 11:46:10 PM 50.3635 1.2296 323° Northwest 440 506 28,500 -1,935 Descending FlightAware UK
Mon 11:46:25 PM 50.3871 1.2028 323° Northwest 436 502 29,600 -1,800 Climbing FlightAware ADS-B
Mon 11:46:40 PM 50.4108 1.1724 323° Northwest 434 499 27,600 -1,742 Descending FlightAware UK
Mon 11:46:56 PM 50.4358 1.1435 323° Northwest 427 491 28,700 -1,833 Climbing FlightAware ADS-B
Mon 11:47:16 PM 50.4677 1.1035 323° Northwest 428 493 26,500 -1,800 Descending FlightAware UK
Mon 11:47:26 PM 50.4823 1.0871 323° Northwest 419 482 27,800 -1,800 Climbing FlightAware ADS-B
Mon 11:47:46 PM 50.5135 1.0480 323° Northwest 424 488 25,600 -1,800 Descending FlightAware UK
Mon 11:47:56 PM 50.5281 1.0321 323° Northwest 411 473 26,900 -1,800 Climbing FlightAware ADS-B
Mon 11:48:16 PM 50.5584 0.9937 323° Northwest 420 483 24,700 -2,200 Descending FlightAware UK
Mon 11:48:26 PM 50.5729 0.9779 323° Northwest 406 467 25,800 -3,400 Climbing FlightAware ADS-B
Mon 11:48:46 PM 50.6030 0.9397 323° Northwest 426 490 23,000 -4,065 Descending FlightAware UK
Mon 11:48:57 PM 50.6192 0.9206 323° Northwest 424 488 23,700 -3,400 Climbing FlightAware ADS-B
Mon 11:49:16 PM 50.6490 0.8832 323° Northwest 440 506 21,300 -2,400 Descending FlightAware UK
Mon 11:49:27 PM 50.6663 0.8642 323° Northwest 419 482 22,500 -2,000 Climbing FlightAware ADS-B
Mon 11:49:46 PM 50.6953 0.8275 323° Northwest 428 493 20,300 -2,129 Descending FlightAware UK
Mon 11:49:58 PM 50.7126 0.8073 323° Northwest 408 470 21,400 -2,000 Climbing FlightAware ADS-B
Mon 11:50:16 PM 50.7399 0.7727 323° Northwest 420 483 19,300 -2,200 Descending FlightAware UK
Mon 11:50:28 PM 50.7574 0.7532 323° Northwest 399 459 20,300 -2,200 Climbing FlightAware ADS-B
Mon 11:50:46 PM 50.7836 0.7194 323° Northwest 416 479 18,200 -2,000 Descending FlightAware UK
Mon 11:50:58 PM 50.8006 0.6984 323° Northwest 388 447 19,300 -2,000 Climbing FlightAware ADS-B
Mon 11:51:16 PM 50.8257 0.6676 323° Northwest 404 465 17,200 -2,200 Descending FlightAware UK
Mon 11:51:28 PM 50.8428 0.6466 323° Northwest 382 440 18,200 -2,600 Climbing FlightAware ADS-B
Mon 11:51:46 PM 50.8678 0.6155 323° Northwest 402 463 15,900 -2,323 Descending FlightAware UK
Mon 11:51:59 PM 50.8857 0.5936 323° Northwest 376 433 17,000 -2,069 Climbing FlightAware ADS-B
Mon 11:52:15 PM 50.9084 0.5654 323° Northwest 394 453 14,900 -2,129 Descending FlightAware UK
Mon 11:52:30 PM 50.9271 0.5433 323° Northwest 369 425 15,900 -2,323 Climbing FlightAware ADS-B
Mon 11:52:46 PM 50.9491 0.5150 323° Northwest 384 442 13,700 -2,400 Descending FlightAware UK
Mon 11:53:00 PM 50.9676 0.4935 323° Northwest 367 422 14,700 -2,200 Climbing FlightAware ADS-B
Mon 11:53:16 PM 50.9892 0.4653 323° Northwest 382 440 12,600 -2,000 Descending FlightAware UK
Mon 11:53:30 PM 51.0076 0.4427 323° Northwest 359 413 13,700 -2,200 Climbing FlightAware ADS-B
Mon 11:53:46 PM 51.0286 0.4166 323° Northwest 374 430 11,500 -2,200 Descending FlightAware UK
Mon 11:54:00 PM 51.0470 0.3943 323° Northwest 354 407 12,600 -2,000 Climbing FlightAware ADS-B
Mon 11:54:16 PM 51.0669 0.3690 323° Northwest 372 428 10,500 -1,548 Descending FlightAware UK
Mon 11:54:31 PM 51.0853 0.3465 323° Northwest 340 391 11,800 -800 Climbing FlightAware ADS-B
Mon 11:54:46 PM 51.1035 0.3222 323° Northwest 346 398 10,100 -800 Descending FlightAware UK
Mon 11:55:01 PM 51.1216 0.3004 323° Northwest 317 365 11,400 -1,029 Climbing FlightAware ADS-B
Mon 11:55:21 PM 51.1446 0.2708 323° Northwest 322 371 9,500 -968 Descending FlightAware UK
Mon 11:55:32 PM 51.1563 0.2567 323° Northwest 301 346 10,900 4,105 Climbing FlightAware ADS-B
Mon 11:55:40 PM 51.1648 0.2460 322° Northwest 297 342 10,800 -923 Descending FlightAware ADS-B
Mon 11:55:45 PM 51.1703 0.2412 331° Northwest 295 339 10,700 -600 Descending FlightAware ADS-B
Mon 11:55:50 PM 51.1766 0.2364 334° Northwest 294 338 10,700 -600 Level FlightAware ADS-B
Mon 11:55:55 PM 51.1833 0.2323 339° North 293 337 10,600 -750 Descending FlightAware ADS-B
Mon 11:55:58 PM 51.1876 0.2311 350° North 292 336 10,600 -667 Level FlightAware ADS-B
Mon 11:56:04 PM 51.1956 0.2299 355° North 290 334 10,500 -1,091 Descending FlightAware ADS-B
Mon 11:56:09 PM 51.2023 0.2298 359° North 289 333 10,400 -4,750 Descending FlightAware ADS-B
Mon 11:56:28 PM 51.2269 0.2302 359° North 290 334 8,600 -1,000 Descending FlightAware UK
Mon 11:56:33 PM 51.2335 0.2306 359° North 283 326 10,000 4,235 Climbing FlightAware ADS-B
Mon 11:56:45 PM 51.2497 0.2309 North 280 322 9,800 -667 Descending FlightAware ADS-B
Mon 11:57:00 PM 51.2689 0.2311 360° North 268 308 9,700 -400 Descending FlightAware ADS-B
Mon 11:57:15 PM 51.2871 0.2312 360° North 256 295 9,600 -387 Descending FlightAware ADS-B
Mon 11:57:31 PM 51.3047 0.2316 North 247 284 9,500 -581 Descending FlightAware ADS-B
Mon 11:57:46 PM 51.3219 0.2319 North 242 278 9,300 -1,154 Descending FlightAware ADS-B
Mon 11:57:57 PM 51.3348 0.2321 North 242 278 9,000 -1,333 Descending FlightAware ADS-B
Mon 11:58:13 PM 51.3520 0.2322 360° North 243 280 8,700 -1,143 Descending FlightAware ADS-B
Mon 11:58:18 PM 51.3576 0.2322 360° North 243 280 8,600 -1,412 Descending FlightAware ADS-B
Mon 11:58:30 PM 51.3716 0.2320 360° North 243 280 8,300 -1,304 Descending FlightAware ADS-B
Mon 11:58:41 PM 51.3841 0.2318 359° North 242 278 8,100 -1,250 Descending FlightAware ADS-B
Mon 11:58:54 PM 51.3980 0.2316 359° North 242 278 7,800 -1,500 Descending FlightAware ADS-B
Mon 11:59:09 PM 51.4152 0.2312 359° North 246 283 7,400 -1,200 Descending FlightAware ADS-B
Mon 11:59:24 PM 51.4322 0.2307 359° North 243 280 7,200 -632 Descending FlightAware ADS-B
Mon 11:59:28 PM 51.4372 0.2304 358° North 241 277 7,200 -857 Level FlightAware ADS-B
Mon 11:59:31 PM 51.4406 0.2300 355° North 240 276 7,100 -1,714 Descending FlightAware ADS-B
Mon 11:59:35 PM 51.4445 0.2293 354° North 239 275 7,000 -857 Descending FlightAware ADS-B
Mon 11:59:38 PM 51.4481 0.2275 343° North 237 273 7,000 -750 Level FlightAware ADS-B
Mon 11:59:43 PM 51.4525 0.2248 339° North 234 269 6,900 -1,500 Descending FlightAware ADS-B
Mon 11:59:46 PM 51.4557 0.2213 326° Northwest 233 268 6,800 -857 Descending FlightAware ADS-B
Mon 11:59:50 PM 51.4584 0.2181 323° Northwest 232 267 6,800 -750 Level FlightAware ADS-B
Mon 11:59:54 PM 51.4614 0.2131 314° West 231 266 6,700 -750 Descending FlightAware ADS-B
Mon 11:59:58 PM 51.4639 0.2076 306° West 229 264 6,700  Level FlightAware ADS-B
Tue 12:00:01 AM 51.4656 0.2018 295° West 228 262 6,700 -750 Level FlightAware ADS-B
Tue 12:00:06 AM 51.4681 0.1944 299° West 225 259 6,600 -1,091 Descending FlightAware ADS-B
Tue 12:00:12 AM 51.4704 0.1868 296° West 221 254 6,500 -600 Descending FlightAware ADS-B
Tue 12:00:16 AM 51.4718 0.1807 290° West 220 253 6,500 -667 Level FlightAware ADS-B
Tue 12:00:21 AM 51.4727 0.1727 280° West 217 250 6,400 -667 Descending FlightAware ADS-B
Tue 12:00:34 AM 51.4746 0.1524 279° West 209 241 6,300 -462 Descending FlightAware ADS-B
Tue 12:00:47 AM 51.4761 0.1329 277° West 198 228 6,200 -522 Descending FlightAware ADS-B
Tue 12:00:57 AM 51.4775 0.1188 279° West 190 219 6,100 -462 Descending FlightAware ADS-B
Tue 12:01:00 AM 51.4780 0.1131 278° West 189 217 6,100  Level FlightAware ADS-B
Tue 12:01:09 AM 51.4787 0.1022 276° West 185 213 6,100 -353 Level FlightAware ADS-B
Tue 12:01:17 AM 51.4790 0.0912 273° West 185 213 6,000 -333 Descending FlightAware ADS-B
Tue 12:01:27 AM 51.4790 0.0761 270° West 184 212 6,000 -462 Level FlightAware ADS-B
Tue 12:01:43 AM 51.4787 0.0551 269° West 171 197 5,800 -3,484 Descending FlightAware ADS-B
Tue 12:01:58 AM 51.4784 0.0365 269° West 178 205 4,200 -400 Descending FlightAware UK
Tue 12:01:58 AM 51.4784 0.0365 269° West 164 189 5,700 5,250 Climbing FlightAware ADS-B
Tue 12:02:14 AM 51.4783 0.0169 270° West 163 188 5,600 -581 Descending FlightAware ADS-B
Tue 12:02:29 AM 51.4782 -0.0012 269° West 163 188 5,400 -968 Descending FlightAware ADS-B
Tue 12:02:45 AM 51.4783 -0.0194 271° West 164 189 5,100 -968 Descending FlightAware ADS-B
Tue 12:03:00 AM 51.4783 -0.0379 270° West 166 191 4,900 -889 Descending FlightAware ADS-B
Tue 12:03:12 AM 51.4783 -0.0538 270° West 166 191 4,700 -4,286 Descending FlightAware ADS-B
Tue 12:03:28 AM 51.4783 -0.0731 270° West 172 198 2,900 -750 Descending FlightAware UK
Tue 12:03:28 AM 51.4782 -0.0735 270° West 167 192 4,500 6,462 Climbing FlightAware ADS-B
Tue 12:03:41 AM 51.4779 -0.0883 268° West 168 193 4,300 -1,091 Descending FlightAware ADS-B
Tue 12:03:50 AM 51.4777 -0.1009 269° West 169 194 4,100 -1,200 Descending FlightAware ADS-B
Tue 12:03:56 AM 51.4778 -0.1083 271° West 169 194 4,000 -818 Descending FlightAware ADS-B
Tue 12:04:12 AM 51.4780 -0.1273 271° West 171 197 3,800 -968 Descending FlightAware ADS-B
Tue 12:04:27 AM 51.4781 -0.1477 270° West 171 197 3,500 -1,241 Descending FlightAware ADS-B
Tue 12:04:41 AM 51.4781 -0.1653 270° West 169 194 3,200 -1,071 Descending FlightAware ADS-B
Tue 12:04:55 AM 51.4780 -0.1814 269° West 166 191 3,000 -750 Descending FlightAware ADS-B
Tue 12:05:13 AM 51.4780 -0.2035 270° West 163 188 2,800 -3,636 Descending FlightAware ADS-B
Tue 12:05:28 AM 51.4780 -0.2231 270° West 166 191 1,000 -1,059 Descending FlightAware UK
Tue 12:05:30 AM 51.4780 -0.2240 270° West 163 188 2,500 -1,000 Climbing FlightAware ADS-B
Tue 12:05:46 AM 51.4781 -0.2445 270° West 166 191 700 -1,059 Descending FlightAware UK
Tue 12:05:47 AM 51.4780 -0.2457 270° West 162 186 2,200 -1,000 Climbing FlightAware ADS-B
Tue 12:06:04 AM 51.4781 -0.2658 270° West 166 191 400 -706 Descending FlightAware UK
Tue 12:06:04 AM 51.4781 -0.2660 270° West 161 185 2,000 5,200 Climbing FlightAware ADS-B
Tue 12:06:19 AM 51.4781 -0.2839 270° West 161 185 1,700 -1,000 Descending FlightAware ADS-B
Tue 12:06:46 AM 51.4778 -0.3144 269° West 161 185 1,300 -800 Descending FlightAware ADS-B
Tue 12:07:04 AM 51.4779 -0.3351 270° West 161 185 1,100 -706 Descending FlightAware ADS-B
Tue 12:07:20 AM 51.4780 -0.3533 271° West 153 176 900 -612 Descending FlightAware ADS-B
Tue 12:08:42 AM 51.4780 -0.4380 270° West 151 174 100 -585 Descending FlightAware ADS-B
Tue 12:11:00 AM 51.4775 -0.4614 268° West  Level Estimated
Tue 12:12:00 AM 51.4775 -0.4614 90° East  Level Estimated
Tue 12:13:00 AM 51.4775 -0.4614 90° East  Level Estimated
Tue 12:14:00 AM 51.4775 -0.4614 90° East  Level Estimated
Tue 12:15:00 AM 51.4775 -0.4614 90° East  Level Estimated
Tue 12:16:00 AM 51.4775 -0.4614 90° East  Level Estimated
Tue 12:17:00 AM 51.4775 -0.4614 90° East  Level Estimated
Tue 12:18:00 AM 51.4775 -0.4614 90° East  Level Estimated
Tue 12:19:00 AM 51.4775 -0.4614 90° East  Level Estimated

Login

Don't have an account? Register now (free) for customized features, flight alerts, and more!